createdAt,value
2023-04-15T00:01:33.906Z,6.00
2023-04-15T00:04:03.676Z,5.90
2023-04-15T00:06:33.284Z,5.90
2023-04-15T00:09:01.541Z,5.90
2023-04-15T00:11:31.588Z,5.90
2023-04-15T00:14:01.479Z,5.90
2023-04-15T00:16:33.262Z,5.80
2023-04-15T00:19:03.116Z,5.80
2023-04-15T00:21:32.777Z,5.80
2023-04-15T00:24:02.470Z,5.80
2023-04-15T00:26:32.279Z,5.70
2023-04-15T00:29:02.451Z,5.70
2023-04-15T00:31:34.694Z,5.60
2023-04-15T00:34:04.682Z,5.50
2023-04-15T00:36:35.663Z,5.40
2023-04-15T00:39:05.683Z,5.40
2023-04-15T00:41:39.088Z,5.50
2023-04-15T00:44:10.454Z,5.50
2023-04-15T00:46:42.668Z,5.50
2023-04-15T00:49:13.181Z,5.50
2023-04-15T00:51:43.146Z,5.50
2023-04-15T00:54:13.235Z,5.50
2023-04-15T00:56:43.061Z,5.50
2023-04-15T00:59:13.425Z,5.60
2023-04-15T01:01:45.551Z,5.50
2023-04-15T01:04:15.638Z,5.30
2023-04-15T01:06:45.882Z,5.30
2023-04-15T01:09:15.527Z,5.30
2023-04-15T01:11:45.774Z,5.30
2023-04-15T01:14:15.379Z,5.20
2023-04-15T01:16:46.893Z,5.30
2023-04-15T01:19:18.489Z,5.10
2023-04-15T01:21:46.993Z,5.10
2023-04-15T01:24:19.240Z,5.10
2023-04-15T01:26:50.876Z,5.00
2023-04-15T01:29:21.435Z,5.00
2023-04-15T01:31:55.136Z,5.00
2023-04-15T01:34:24.809Z,5.00
2023-04-15T01:36:54.654Z,4.80
2023-04-15T01:39:24.478Z,4.90
2023-04-15T01:41:55.702Z,4.90
2023-04-15T01:44:25.751Z,4.70
2023-04-15T01:46:55.299Z,4.70
2023-04-15T01:49:25.136Z,4.70
2023-04-15T01:51:58.330Z,4.80
2023-04-15T01:54:28.436Z,4.70
2023-04-15T01:56:59.445Z,4.70
2023-04-15T01:59:30.147Z,4.80
2023-04-15T02:01:58.323Z,4.90
2023-04-15T02:04:28.042Z,5.00
2023-04-15T02:06:57.816Z,5.00
2023-04-15T02:09:27.365Z,5.10
2023-04-15T02:11:57.334Z,5.10
2023-04-15T02:14:28.217Z,5.00
2023-04-15T02:16:58.077Z,5.00
2023-04-15T02:19:27.843Z,5.00
2023-04-15T02:21:57.558Z,4.90
2023-04-15T02:24:27.294Z,4.80
2023-04-15T02:26:57.305Z,4.90
2023-04-15T02:29:28.497Z,4.90
2023-04-15T02:31:58.252Z,4.80
2023-04-15T02:34:28.045Z,4.90
2023-04-15T02:36:57.804Z,4.90
2023-04-15T02:39:27.586Z,5.00
2023-04-15T02:41:59.081Z,4.90
2023-04-15T02:44:31.204Z,5.00
2023-04-15T02:47:00.735Z,5.10
2023-04-15T02:49:31.045Z,5.00
2023-04-15T02:52:00.678Z,4.90
2023-04-15T02:54:30.328Z,4.80
2023-04-15T02:57:00.127Z,4.80
2023-04-15T02:59:31.291Z,4.90
2023-04-15T03:02:01.369Z,4.90
2023-04-15T03:04:31.196Z,4.80
2023-04-15T03:07:02.078Z,4.80
2023-04-15T03:09:32.152Z,4.80
2023-04-15T03:12:02.033Z,4.80
2023-04-15T03:14:33.096Z,4.80
2023-04-15T03:17:03.037Z,4.90
2023-04-15T03:19:32.723Z,4.90
2023-04-15T03:22:02.417Z,4.90
2023-04-15T03:24:32.313Z,5.00
2023-04-15T03:27:02.478Z,5.10
2023-04-15T03:29:33.620Z,4.90
2023-04-15T03:32:03.449Z,4.90
2023-04-15T03:34:33.226Z,4.80
2023-04-15T03:37:03.099Z,4.80
2023-04-15T03:39:32.883Z,4.80
2023-04-15T03:42:03.369Z,4.90
2023-04-15T03:44:34.312Z,4.80
2023-04-15T03:47:04.062Z,4.80
2023-04-15T03:49:33.993Z,4.80
2023-04-15T03:52:03.743Z,4.80
2023-04-15T03:54:33.490Z,4.90
2023-04-15T03:57:03.405Z,4.90
2023-04-15T03:59:34.542Z,4.90
2023-04-15T04:02:04.381Z,4.90
2023-04-15T04:04:34.254Z,4.90
2023-04-15T04:07:04.179Z,5.00
2023-04-15T04:09:34.268Z,5.00
2023-04-15T04:12:04.204Z,4.90
2023-04-15T04:14:35.299Z,4.80
2023-04-15T04:17:05.119Z,4.90
2023-04-15T04:19:34.769Z,4.80
2023-04-15T04:22:04.675Z,4.90
2023-04-15T04:24:34.441Z,4.90
2023-04-15T04:27:04.202Z,4.80
2023-04-15T04:29:35.343Z,4.90
2023-04-15T04:32:05.123Z,4.90
2023-04-15T04:34:34.975Z,4.80
2023-04-15T04:37:04.765Z,4.70
2023-04-15T04:39:34.500Z,4.80
2023-04-15T04:42:04.345Z,4.80
2023-04-15T04:44:35.485Z,4.70
2023-04-15T04:47:03.295Z,4.70
2023-04-15T04:49:33.021Z,4.60
2023-04-15T04:52:02.728Z,4.70
2023-04-15T04:54:32.469Z,4.60
2023-04-15T04:57:02.270Z,4.70
2023-04-15T04:59:32.044Z,4.60
2023-04-15T05:02:03.294Z,4.60
2023-04-15T05:04:33.152Z,4.60
2023-04-15T05:07:02.918Z,4.70
2023-04-15T05:09:36.001Z,4.70
2023-04-15T05:12:05.843Z,4.60
2023-04-15T05:14:35.355Z,4.70
2023-04-15T05:17:06.603Z,4.70
2023-04-15T05:19:36.414Z,4.60
2023-04-15T05:22:06.146Z,4.70
2023-04-15T05:24:36.398Z,4.80
2023-04-15T05:27:06.397Z,4.80
2023-04-15T05:29:36.155Z,5.00
2023-04-15T05:32:07.366Z,5.10
2023-04-15T05:34:37.225Z,5.30
2023-04-15T05:37:07.026Z,5.40
2023-04-15T05:39:36.822Z,5.50
2023-04-15T05:42:06.947Z,5.50
2023-04-15T05:44:36.538Z,5.40
2023-04-15T05:47:08.656Z,5.40
2023-04-15T05:49:38.179Z,5.40
2023-04-15T05:52:07.770Z,5.30
2023-04-15T05:54:37.512Z,5.30
2023-04-15T05:57:07.855Z,5.30
2023-04-15T05:59:38.748Z,5.40
2023-04-15T06:02:10.695Z,5.40
2023-04-15T06:04:40.541Z,5.30
2023-04-15T06:07:10.618Z,5.40
2023-04-15T06:09:40.426Z,5.50
2023-04-15T06:12:12.207Z,5.50
2023-04-15T06:14:42.339Z,5.50
2023-04-15T06:17:14.961Z,5.60
2023-04-15T06:19:44.407Z,5.70
2023-04-15T06:22:14.167Z,5.70
2023-04-15T06:24:44.018Z,5.80
2023-04-15T06:27:13.720Z,5.90
2023-04-15T06:29:43.530Z,6.10
2023-04-15T06:32:14.622Z,6.10
2023-04-15T06:34:44.425Z,6.20
2023-04-15T06:37:16.121Z,6.20
2023-04-15T06:39:45.761Z,6.30
2023-04-15T06:42:17.073Z,6.40
2023-04-15T06:44:47.007Z,6.60
2023-04-15T06:47:18.234Z,6.90
2023-04-15T06:49:48.050Z,7.00
2023-04-15T06:52:17.766Z,7.00
2023-04-15T06:54:47.518Z,7.10
2023-04-15T06:57:17.364Z,7.20
2023-04-15T06:59:47.168Z,7.20
2023-04-15T07:02:18.442Z,7.30
2023-04-15T07:04:48.837Z,7.40
2023-04-15T07:07:18.477Z,7.40
2023-04-15T07:09:48.309Z,7.50
2023-04-15T07:12:17.973Z,7.50
2023-04-15T07:14:47.896Z,7.50
2023-04-15T07:17:19.196Z,7.60
2023-04-15T07:19:49.237Z,7.80
2023-04-15T07:22:18.800Z,7.90
2023-04-15T07:24:48.665Z,8.00
2023-04-15T07:27:17.975Z,8.00
2023-04-15T07:29:47.492Z,8.00
2023-04-15T07:32:16.936Z,8.20
2023-04-15T07:34:46.994Z,8.30
2023-04-15T07:37:17.449Z,8.40
2023-04-15T07:39:47.172Z,8.60
2023-04-15T07:42:16.748Z,8.70
2023-04-15T07:44:46.603Z,8.90
2023-04-15T07:47:16.751Z,8.90
2023-04-15T07:49:47.768Z,9.10
2023-04-15T07:52:17.464Z,9.20
2023-04-15T07:54:46.990Z,9.30
2023-04-15T07:57:17.004Z,9.20
2023-04-15T07:59:46.911Z,9.20
2023-04-15T08:02:16.919Z,9.20
2023-04-15T08:04:48.749Z,9.10
2023-04-15T08:07:18.652Z,9.10
2023-04-15T08:09:48.321Z,9.10
2023-04-15T08:12:18.135Z,9.10
2023-04-15T08:14:48.221Z,9.10
2023-04-15T08:17:17.826Z,9.10
2023-04-15T08:19:49.273Z,9.20
2023-04-15T08:22:19.689Z,9.30
2023-04-15T08:24:51.246Z,9.40
2023-04-15T08:27:21.552Z,9.50
2023-04-15T08:29:51.332Z,9.70
2023-04-15T08:32:21.260Z,9.90
2023-04-15T08:34:52.225Z,9.90
2023-04-15T08:37:22.902Z,10.00
2023-04-15T08:39:52.725Z,10.10
2023-04-15T08:42:29.143Z,10.20
2023-04-15T08:45:05.127Z,10.30
2023-04-15T08:47:35.204Z,10.30
2023-04-15T08:50:10.584Z,10.50
2023-04-15T08:52:40.842Z,10.50
2023-04-15T08:55:13.010Z,10.40
2023-04-15T08:57:43.204Z,10.40
2023-04-15T09:00:14.452Z,10.40
2023-04-15T09:02:44.940Z,10.40
2023-04-15T09:05:16.551Z,10.50
2023-04-15T09:07:46.333Z,10.70
2023-04-15T09:10:15.936Z,10.70
2023-04-15T09:12:46.037Z,10.70
2023-04-15T09:15:16.580Z,10.70
2023-04-15T09:17:47.858Z,10.70
2023-04-15T09:20:19.990Z,10.70
2023-04-15T09:22:51.078Z,10.70
2023-04-15T09:25:34.834Z,10.80
2023-04-15T09:28:05.132Z,10.80
2023-04-15T09:30:35.181Z,10.80
2023-04-15T09:33:08.359Z,10.90
2023-04-15T09:35:39.850Z,10.80
2023-04-15T09:38:11.276Z,10.90
2023-04-15T09:40:42.548Z,10.90
2023-04-15T09:43:13.779Z,11.00
2023-04-15T09:45:50.959Z,11.00
2023-04-15T09:48:23.401Z,11.00
2023-04-15T09:50:54.862Z,11.00
2023-04-15T09:53:25.998Z,11.00
2023-04-15T09:55:57.044Z,11.00
2023-04-15T09:58:28.334Z,11.20
2023-04-15T10:00:59.709Z,11.30
2023-04-15T10:03:31.150Z,11.40
2023-04-15T10:06:03.523Z,11.30
2023-04-15T10:08:35.252Z,11.30
2023-04-15T10:11:05.560Z,11.30
2023-04-15T10:13:37.301Z,11.30
2023-04-15T10:16:11.829Z,11.00
2023-04-15T10:18:44.644Z,10.90
2023-04-15T10:21:18.410Z,10.80
2023-04-15T10:23:48.870Z,10.60
2023-04-15T10:26:19.193Z,10.60
2023-04-15T10:28:49.111Z,10.50
2023-04-15T10:31:19.975Z,10.50
2023-04-15T10:33:50.774Z,10.50
2023-04-15T10:36:22.292Z,10.60
2023-04-15T10:38:52.165Z,10.50
2023-04-15T10:41:23.292Z,10.40
2023-04-15T10:43:53.073Z,10.30
2023-04-15T10:46:25.609Z,10.10
2023-04-15T10:48:56.434Z,10.10
2023-04-15T10:51:35.910Z,9.90
2023-04-15T10:54:09.604Z,9.70
2023-04-15T10:56:39.318Z,9.60
2023-04-15T10:59:09.039Z,9.50
2023-04-15T11:01:56.533Z,9.40
2023-04-15T11:04:55.801Z,9.40
2023-04-15T11:07:58.597Z,9.40
2023-04-15T11:10:57.365Z,9.40
2023-04-15T11:13:29.409Z,9.40
2023-04-15T11:16:01.690Z,9.30
2023-04-15T11:18:34.485Z,9.30
2023-04-15T11:21:09.387Z,9.30
2023-04-15T11:23:44.222Z,9.30
2023-04-15T11:26:14.693Z,9.40
2023-04-15T11:28:46.226Z,9.30
2023-04-15T11:31:17.621Z,9.40
2023-04-15T11:33:58.171Z,9.40
2023-04-15T11:36:28.853Z,9.40
2023-04-15T11:39:01.410Z,9.40
2023-04-15T11:41:31.037Z,9.40
2023-04-15T11:44:01.013Z,9.40
2023-04-15T11:46:34.312Z,9.30
2023-04-15T11:49:04.986Z,9.10
2023-04-15T11:51:35.639Z,9.10
2023-04-15T11:54:06.709Z,9.10
2023-04-15T11:56:36.402Z,9.00
2023-04-15T11:59:06.248Z,9.00
2023-04-15T12:01:36.871Z,9.00
2023-04-15T12:04:15.551Z,9.10
2023-04-15T12:06:45.481Z,9.00
2023-04-15T12:09:17.179Z,9.00
2023-04-15T12:11:48.954Z,9.00
2023-04-15T12:14:28.272Z,9.00
2023-04-15T12:17:00.226Z,9.00
2023-04-15T12:19:32.485Z,9.00
2023-04-15T12:22:04.087Z,9.10
2023-04-15T12:24:37.170Z,9.20
2023-04-15T12:27:08.090Z,9.20
2023-04-15T12:29:39.627Z,9.20
2023-04-15T12:32:10.790Z,9.20
2023-04-15T12:34:42.077Z,9.20
2023-04-15T12:37:14.254Z,9.20
2023-04-15T12:39:49.774Z,9.20
2023-04-15T12:42:22.564Z,9.20
2023-04-15T12:44:52.115Z,9.20
2023-04-15T12:47:21.943Z,9.30
2023-04-15T12:49:51.812Z,9.20
2023-04-15T12:52:21.961Z,9.20
2023-04-15T12:54:54.218Z,9.10
2023-04-15T12:57:23.711Z,9.10
2023-04-15T12:59:53.553Z,9.00
2023-04-15T13:02:25.440Z,9.00
2023-04-15T13:04:55.758Z,9.00
2023-04-15T13:07:25.634Z,9.00
2023-04-15T13:09:56.846Z,9.00
2023-04-15T13:12:27.916Z,8.90
2023-04-15T13:14:57.477Z,9.00
2023-04-15T13:17:27.410Z,8.90
2023-04-15T13:19:57.199Z,8.90
2023-04-15T13:22:27.108Z,8.90
2023-04-15T13:24:58.207Z,8.80
2023-04-15T13:27:28.009Z,8.80
2023-04-15T13:29:58.011Z,8.80
2023-04-15T13:32:27.823Z,8.90
2023-04-15T13:34:57.598Z,8.80
2023-04-15T13:37:29.809Z,8.80
2023-04-15T13:40:00.724Z,8.80
2023-04-15T13:42:30.552Z,8.70
2023-04-15T13:45:00.259Z,8.70
2023-04-15T13:47:30.094Z,8.60
2023-04-15T13:50:00.970Z,8.60
2023-04-15T13:52:31.066Z,8.70
2023-04-15T13:55:18.563Z,8.70
2023-04-15T13:57:50.416Z,8.70
2023-04-15T14:00:20.152Z,8.70
2023-04-15T14:02:50.167Z,8.70
2023-04-15T14:05:20.389Z,8.80
2023-04-15T14:07:49.928Z,8.80
2023-04-15T14:10:20.959Z,8.80
2023-04-15T14:12:50.720Z,8.70
2023-04-15T14:15:20.394Z,8.80
2023-04-15T14:17:50.328Z,8.80
2023-04-15T14:20:20.394Z,8.80
2023-04-15T14:22:50.339Z,8.80
2023-04-15T14:25:30.789Z,8.90
2023-04-15T14:28:03.286Z,8.80
2023-04-15T14:30:32.787Z,8.90
2023-04-15T14:33:02.684Z,8.90
2023-04-15T14:35:32.567Z,8.90
2023-04-15T14:38:02.125Z,8.90
2023-04-15T14:40:34.185Z,8.90
2023-04-15T14:43:05.697Z,9.00
2023-04-15T14:45:36.281Z,8.90
2023-04-15T14:48:09.735Z,8.80
2023-04-15T14:50:39.319Z,8.90
2023-04-15T14:53:09.184Z,8.90
2023-04-15T14:55:40.371Z,8.80
2023-04-15T14:58:10.137Z,8.80
2023-04-15T15:00:41.956Z,8.70
2023-04-15T15:03:13.646Z,8.70
2023-04-15T15:05:44.695Z,8.70
2023-04-15T15:08:15.014Z,8.60
2023-04-15T15:10:48.320Z,8.60
2023-04-15T15:13:19.907Z,8.60
2023-04-15T15:15:50.089Z,8.60
2023-04-15T15:18:20.120Z,8.60
2023-04-15T15:20:49.738Z,8.70
2023-04-15T15:23:19.659Z,8.70
2023-04-15T15:25:50.681Z,8.70
2023-04-15T15:28:21.704Z,8.70
2023-04-15T15:30:51.241Z,8.70
2023-04-15T15:33:21.631Z,8.70
2023-04-15T15:35:51.689Z,8.80
2023-04-15T15:38:21.401Z,8.80
2023-04-15T15:40:52.687Z,8.70
2023-04-15T15:43:22.464Z,8.70
2023-04-15T15:45:55.273Z,8.70
2023-04-15T15:48:26.306Z,8.70
2023-04-15T15:50:56.216Z,8.70
2023-04-15T15:53:26.039Z,8.70
2023-04-15T15:55:57.144Z,8.70
2023-04-15T15:58:26.941Z,8.70
2023-04-15T16:00:56.791Z,8.60
2023-04-15T16:03:26.892Z,8.70
2023-04-15T16:05:56.954Z,8.70
2023-04-15T16:08:27.102Z,8.60
2023-04-15T16:10:58.357Z,8.60
2023-04-15T16:13:28.610Z,8.50
2023-04-15T16:15:58.455Z,8.50
2023-04-15T16:18:28.361Z,8.50
2023-04-15T16:20:58.158Z,8.50
2023-04-15T16:23:27.973Z,8.50
2023-04-15T16:25:59.103Z,8.50
2023-04-15T16:28:28.894Z,8.50
2023-04-15T16:30:59.387Z,8.60
2023-04-15T16:33:29.775Z,8.50
2023-04-15T16:35:59.420Z,8.50
2023-04-15T16:38:29.318Z,8.50
2023-04-15T16:41:02.619Z,8.50
2023-04-15T16:43:32.449Z,8.50
2023-04-15T16:46:02.338Z,8.40
2023-04-15T16:48:32.106Z,8.40
2023-04-15T16:51:01.961Z,8.40
2023-04-15T16:53:31.811Z,8.40
2023-04-15T16:56:02.776Z,8.40
2023-04-15T16:58:32.597Z,8.50
2023-04-15T17:01:02.564Z,8.50
2023-04-15T17:03:32.513Z,8.50
2023-04-15T17:06:02.327Z,8.40
2023-04-15T17:08:32.156Z,8.40
2023-04-15T17:11:03.418Z,8.40
2023-04-15T17:13:33.466Z,8.40
2023-04-15T17:16:03.293Z,8.40
2023-04-15T17:18:33.070Z,8.40
2023-04-15T17:21:02.979Z,8.40
2023-04-15T17:23:33.108Z,8.40
2023-04-15T17:26:04.343Z,8.40
2023-04-15T17:28:34.166Z,8.40
2023-04-15T17:31:04.333Z,8.40
2023-04-15T17:33:59.047Z,8.30
2023-04-15T17:36:24.147Z,8.30
2023-04-15T17:38:53.826Z,8.40
2023-04-15T17:41:25.029Z,8.30
2023-04-15T17:43:54.893Z,8.40
2023-04-15T17:46:24.636Z,8.30
2023-04-15T17:48:54.450Z,8.40
2023-04-15T17:51:24.323Z,8.30
2023-04-15T17:53:54.135Z,8.30
2023-04-15T17:56:27.916Z,8.30
2023-04-15T17:59:00.350Z,8.40
2023-04-15T18:01:29.970Z,8.40
2023-04-15T18:03:59.856Z,8.40
2023-04-15T18:06:29.828Z,8.40
2023-04-15T18:08:59.750Z,8.30
2023-04-15T18:11:30.886Z,8.30
2023-04-15T18:14:00.745Z,8.30
2023-04-15T18:16:30.541Z,8.30
2023-04-15T18:19:01.059Z,8.30
2023-04-15T18:21:31.397Z,8.30
2023-04-15T18:24:01.192Z,8.30
2023-04-15T18:26:32.585Z,8.30
2023-04-15T18:29:02.449Z,8.30
2023-04-15T18:31:33.088Z,8.30
2023-04-15T18:36:34.482Z,8.30
2023-04-15T18:39:04.936Z,8.30
2023-04-15T18:41:36.470Z,8.30
2023-04-15T18:44:06.248Z,8.30
2023-04-15T18:46:36.151Z,8.30
2023-04-15T18:49:06.159Z,8.30
2023-04-15T18:51:36.903Z,8.30
2023-04-15T18:54:06.816Z,8.30
2023-04-15T18:56:38.225Z,8.30
2023-04-15T18:59:26.848Z,8.30
2023-04-15T19:01:57.615Z,8.30
2023-04-15T19:04:28.882Z,8.30
2023-04-15T19:06:59.183Z,8.30
2023-04-15T19:09:29.044Z,8.40
2023-04-15T19:12:00.060Z,8.40
2023-04-15T19:14:29.982Z,8.40
2023-04-15T19:16:59.971Z,8.30
2023-04-15T19:19:30.445Z,8.40
2023-04-15T19:22:01.639Z,8.30
2023-04-15T19:24:32.944Z,8.40
2023-04-15T19:27:04.603Z,8.40
2023-04-15T19:29:34.673Z,8.40
2023-04-15T19:32:04.484Z,8.40
2023-04-15T19:34:34.256Z,8.30
2023-04-15T19:37:03.988Z,8.30
2023-04-15T19:39:33.831Z,8.30
2023-04-15T19:42:05.101Z,8.40
2023-04-15T19:44:34.889Z,8.30
2023-04-15T19:47:04.776Z,8.30
2023-04-15T19:49:34.518Z,8.40
2023-04-15T19:52:05.137Z,8.30
2023-04-15T19:54:35.333Z,8.40
2023-04-15T19:57:06.482Z,8.40
2023-04-15T19:59:36.286Z,8.40
2023-04-15T20:02:06.218Z,8.40
2023-04-15T20:04:36.032Z,8.40
2023-04-15T20:07:05.771Z,8.40
2023-04-15T20:09:35.552Z,8.30
2023-04-15T20:12:50.288Z,8.30
2023-04-15T20:14:56.320Z,8.40
2023-04-15T20:17:26.102Z,8.40
2023-04-15T20:19:55.885Z,8.40
2023-04-15T20:22:25.673Z,8.30
2023-04-15T20:24:55.425Z,8.30
2023-04-15T20:27:26.522Z,8.30
2023-04-15T20:29:56.314Z,8.30
2023-04-15T20:32:28.054Z,8.40
2023-04-15T20:34:57.738Z,8.40
2023-04-15T20:37:27.239Z,8.30
2023-04-15T20:39:57.018Z,8.30
2023-04-15T20:42:28.134Z,8.30
2023-04-15T20:44:58.032Z,8.40
2023-04-15T20:47:27.788Z,8.30
2023-04-15T20:49:57.756Z,8.40
2023-04-15T20:52:27.878Z,8.40
2023-04-15T20:54:57.572Z,8.30
2023-04-15T20:57:30.152Z,8.40
2023-04-15T20:59:59.701Z,8.40
2023-04-15T21:02:29.738Z,8.40
2023-04-15T21:04:59.384Z,8.40
2023-04-15T21:07:29.257Z,8.40
2023-04-15T21:09:59.045Z,8.40
2023-04-15T21:12:29.979Z,8.40
2023-04-15T21:14:59.756Z,8.40
2023-04-15T21:17:29.548Z,8.40
2023-04-15T21:19:59.498Z,8.40
2023-04-15T21:22:29.306Z,8.40
2023-04-15T21:24:59.113Z,8.40
2023-04-15T21:27:30.420Z,8.50
2023-04-15T21:29:58.383Z,8.50
2023-04-15T21:32:30.455Z,8.40
2023-04-15T21:35:00.116Z,8.50
2023-04-15T21:37:29.883Z,8.40
2023-04-15T21:40:00.018Z,8.50
2023-04-15T21:42:31.772Z,8.50
2023-04-15T21:45:01.625Z,8.40
2023-04-15T21:47:31.640Z,8.40
2023-04-15T21:50:21.170Z,8.40
2023-04-15T21:52:50.922Z,8.40
2023-04-15T21:55:21.035Z,8.40
2023-04-15T21:57:51.899Z,8.40
2023-04-15T22:00:23.054Z,8.40
2023-04-15T22:02:53.545Z,8.40
2023-04-15T22:05:23.969Z,8.40
2023-04-15T22:07:53.703Z,8.30
2023-04-15T22:10:23.324Z,8.40
2023-04-15T22:12:54.654Z,8.40
2023-04-15T22:15:24.453Z,8.40
2023-04-15T22:17:54.223Z,8.40
2023-04-15T22:20:24.560Z,8.40
2023-04-15T22:22:54.573Z,8.40
2023-04-15T22:25:24.109Z,8.40
2023-04-15T22:27:55.299Z,8.40
2023-04-15T22:30:25.040Z,8.40
2023-04-15T22:32:55.010Z,8.40
2023-04-15T22:35:24.852Z,8.40
2023-04-15T22:37:55.582Z,8.30
2023-04-15T22:40:25.306Z,8.30
2023-04-15T22:42:56.414Z,8.30
2023-04-15T22:45:26.156Z,8.30
2023-04-15T22:47:55.974Z,8.30
2023-04-15T22:50:25.734Z,8.30
2023-04-15T22:52:55.636Z,8.30
2023-04-15T22:55:25.294Z,8.40
2023-04-15T22:57:56.317Z,8.40
2023-04-15T23:00:26.479Z,8.40
2023-04-15T23:02:56.153Z,8.40
2023-04-15T23:05:25.835Z,8.40
2023-04-15T23:07:55.486Z,8.50
2023-04-15T23:10:25.318Z,8.40
2023-04-15T23:12:56.174Z,8.40
2023-04-15T23:15:26.142Z,8.40
2023-04-15T23:17:56.163Z,8.40
2023-04-15T23:20:25.741Z,8.40
2023-04-15T23:22:55.548Z,8.40
2023-04-15T23:25:23.603Z,8.30
2023-04-15T23:27:53.785Z,8.30
2023-04-15T23:30:24.639Z,8.30
2023-04-15T23:32:54.928Z,8.30
2023-04-15T23:35:24.934Z,8.20
2023-04-15T23:37:54.760Z,8.20
2023-04-15T23:40:24.455Z,8.30
2023-04-15T23:42:54.231Z,8.20
2023-04-15T23:45:25.339Z,8.20
2023-04-15T23:47:54.986Z,8.20
2023-04-15T23:50:24.787Z,8.20
2023-04-15T23:52:54.648Z,8.10
2023-04-15T23:55:24.440Z,8.20
2023-04-15T23:57:54.152Z,8.10
